Time;durP1;ratioP1;P1;durP2;ratioP2;P2;SDS_P1;SDS_P2;PMS_P1;PMS_P2;Temp;Humidity;BMP_temperature;BMP_pressure;BME280_temperature;BME280_humidity;BME280_pressure;Samples;Min_cycle;Max_cycle;Signal;HPM_P1;HPM_P2
2021/07/21 00:00:30;;;;;;;8.73;7.83;;;;;;;24.77;46.34;100312.16;1461020;89;21665;-65
2021/07/21 00:02:59;;;;;;;9.50;7.37;;;;;;;24.78;46.33;100311.11;1443587;88;22487;-65
2021/07/21 00:05:27;;;;;;;11.88;6.50;;;;;;;24.76;46.28;100315.40;1438379;89;21525;-65
2021/07/21 00:07:55;;;;;;;9.15;6.85;;;;;;;24.76;46.29;100320.81;1457240;89;21437;-67
2021/07/21 00:10:25;;;;;;;8.18;5.95;;;;;;;24.75;46.25;100317.83;1460258;89;22479;-65
2021/07/21 00:15:45;;;;;;;10.55;7.87;;;;;;;24.74;46.20;100320.26;1462366;89;21592;-66
2021/07/21 00:18:21;;;;;;;7.55;6.65;;;;;;;24.72;46.18;100318.31;1467122;89;21709;-66
2021/07/21 00:20:48;;;;;;;8.05;6.90;;;;;;;24.72;46.22;100313.45;1462796;89;22581;-65
2021/07/21 00:23:16;;;;;;;9.68;6.97;;;;;;;24.70;46.24;100315.02;1451996;89;21525;-67
2021/07/21 00:25:42;;;;;;;8.85;6.42;;;;;;;24.70;46.20;100317.73;1456844;89;21688;-67
2021/07/21 00:28:09;;;;;;;8.43;6.15;;;;;;;24.69;46.13;100321.52;1461598;89;21600;-65
2021/07/21 00:30:35;;;;;;;7.60;6.72;;;;;;;24.69;46.10;100322.87;1455549;89;21539;-66
2021/07/21 00:33:01;;;;;;;8.30;6.78;;;;;;;24.68;46.06;100323.09;1461183;89;22464;-64
2021/07/21 00:35:28;;;;;;;8.10;6.67;;;;;;;24.68;46.09;100323.09;1463035;89;21511;-65
2021/07/21 00:37:54;;;;;;;7.85;7.05;;;;;;;24.67;46.17;100324.17;1456952;89;21725;-65
2021/07/21 00:40:21;;;;;;;12.18;6.53;;;;;;;24.67;46.11;100324.98;1461998;89;21614;-66
2021/07/21 00:42:47;;;;;;;7.40;6.53;;;;;;;24.67;46.04;100330.94;1477494;89;21798;-65
2021/07/21 00:45:14;;;;;;;6.83;6.12;;;;;;;24.65;45.99;100323.05;1468093;89;22516;-67
2021/07/21 00:47:40;;;;;;;7.47;6.15;;;;;;;24.65;46.01;100324.40;1461598;89;21400;-65
2021/07/21 00:50:09;;;;;;;10.63;6.60;;;;;;;24.66;46.04;100322.00;1449315;89;21466;-65
2021/07/21 00:52:39;;;;;;;10.20;6.58;;;;;;;24.66;45.96;100321.19;1446403;89;21510;-65
2021/07/21 00:55:09;;;;;;;8.23;6.75;;;;;;;24.65;45.96;100320.88;1452292;89;21658;-65
2021/07/21 00:57:37;;;;;;;8.05;5.70;;;;;;;24.63;45.97;100317.08;1449801;89;21695;-65
2021/07/21 01:00:09;;;;;;;7.00;5.87;;;;;;;24.64;45.96;100316.54;1459716;89;21467;-66
2021/07/21 01:02:35;;;;;;;8.80;5.92;;;;;;;24.63;45.89;100313.02;1453986;88;21735;-65
2021/07/21 01:05:10;;;;;;;8.48;7.03;;;;;;;24.62;45.87;100312.71;1480580;88;22551;-65
2021/07/21 01:07:40;;;;;;;8.73;6.60;;;;;;;24.63;45.84;100310.82;1480491;88;21470;-65
2021/07/21 01:10:09;;;;;;;9.75;6.62;;;;;;;24.63;45.83;100310.31;1467783;87;21507;-65
2021/07/21 01:12:47;;;;;;;8.03;6.80;;;;;;;24.62;45.82;100312.71;1469270;88;21412;-65
2021/07/21 01:15:20;;;;;;;8.83;6.60;;;;;;;24.62;45.88;100314.60;1459311;90;22464;-65
2021/07/21 01:18:04;;;;;;;8.38;6.85;;;;;;;24.60;45.93;100310.80;1459671;88;22520;-65
2021/07/21 01:20:50;;;;;;;11.03;7.25;;;;;;;24.61;45.83;100315.14;1437748;90;22419;-66
2021/07/21 01:23:58;;;;;;;9.23;6.95;;;;;;;24.60;45.76;100308.60;1462037;88;22521;-65
2021/07/21 01:26:29;;;;;;;8.73;6.67;;;;;;;24.59;45.72;100311.84;1445453;90;21553;-65
2021/07/21 01:28:58;;;;;;;7.08;6.20;;;;;;;24.59;45.67;100314.55;1464581;87;22454;-65
2021/07/21 01:31:35;;;;;;;7.33;6.62;;;;;;;24.58;45.70;100310.22;1450073;90;21538;-65
2021/07/21 01:34:05;;;;;;;10.20;7.05;;;;;;;24.57;45.66;100311.80;1457826;88;21500;-65
2021/07/21 01:36:35;;;;;;;7.12;5.87;;;;;;;24.57;45.72;100308.59;1472849;88;21596;-65
2021/07/21 01:39:04;;;;;;;;;;;;;;;24.55;45.69;100305.30;1464546;90;22537;-65
2021/07/21 01:41:35;;;;;;;6.92;6.25;;;;;;;24.55;45.79;100308.00;1445445;90;20323;-65
2021/07/21 01:44:18;;;;;;;8.28;6.72;;;;;;;24.53;45.74;100302.81;1474977;88;21426;-65
2021/07/21 01:46:49;;;;;;;7.60;6.72;;;;;;;24.53;45.79;100300.65;1453384;90;21582;-65
2021/07/21 01:49:16;;;;;;;7.55;6.20;;;;;;;24.51;45.77;100290.59;1461930;88;21604;-65
2021/07/21 01:51:44;;;;;;;9.88;7.33;;;;;;;24.50;45.82;100291.66;1476078;88;21471;-65
2021/07/21 01:54:12;;;;;;;9.03;6.72;;;;;;;24.51;45.94;100293.30;1464506;87;21470;-65
2021/07/21 01:56:39;;;;;;;6.45;5.83;;;;;;;24.50;45.97;100297.08;1443374;90;21443;-65
2021/07/21 01:59:08;;;;;;;7.83;6.17;;;;;;;24.50;46.03;100294.37;1470517;88;21485;-65
2021/07/21 02:01:37;;;;;;;7.97;6.03;;;;;;;24.49;46.04;100295.45;1435299;89;22426;-65
2021/07/21 02:04:06;;;;;;;9.93;6.37;;;;;;;24.49;46.06;100294.91;1411836;92;22496;-65
2021/07/21 02:06:34;;;;;;;11.08;6.85;;;;;;;24.49;46.05;100297.61;1445067;89;21691;-65
2021/07/21 02:09:05;;;;;;;11.53;6.45;;;;;;;24.48;46.02;100295.95;1457966;89;21729;-65
2021/07/21 02:11:32;;;;;;;8.45;6.85;;;;;;;24.48;45.99;100296.48;1446351;89;21534;-65
2021/07/21 02:14:02;;;;;;;12.70;7.05;;;;;;;24.48;46.02;100305.42;1460322;89;21654;-65
2021/07/21 02:16:29;;;;;;;;;;;;;;;24.47;45.98;100297.56;1464135;89;21567;-65
2021/07/21 02:19:00;;;;;;;7.10;5.95;;;;;;;24.48;46.02;100304.60;1438396;89;20352;-65
2021/07/21 02:21:28;;;;;;;8.05;6.20;;;;;;;24.47;45.94;100310.55;1460018;89;21606;-65
2021/07/21 02:23:54;;;;;;;14.20;7.05;;;;;;;24.47;45.97;100312.44;1472327;89;21633;-65
2021/07/21 02:26:22;;;;;;;8.85;7.78;;;;;;;24.48;45.96;100320.83;1453417;89;21484;-67
2021/07/21 02:28:49;;;;;;;7.55;6.85;;;;;;;24.46;46.00;100318.39;1440211;89;21627;-65
2021/07/21 02:31:29;;;;;;;6.87;6.15;;;;;;;24.46;46.03;100321.09;1461206;89;21707;-65
2021/07/21 02:34:02;;;;;;;8.78;6.60;;;;;;;24.47;45.99;100321.91;1452058;89;21685;-65
2021/07/21 02:36:29;;;;;;;12.00;6.47;;;;;;;24.46;46.00;100329.74;1462501;89;21507;-65
2021/07/21 02:38:55;;;;;;;10.82;6.55;;;;;;;24.46;46.06;100325.69;1433414;89;21557;-66
2021/07/21 02:41:22;;;;;;;8.50;6.72;;;;;;;24.46;46.05;100329.74;1460473;89;21470;-65
2021/07/21 02:43:49;;;;;;;8.50;6.17;;;;;;;24.45;46.06;100327.55;1452057;89;21662;-66
2021/07/21 02:46:15;;;;;;;7.92;6.20;;;;;;;24.46;46.11;100329.74;1454648;89;21644;-65
2021/07/21 02:48:47;;;;;;;10.35;6.83;;;;;;;24.46;46.04;100337.86;1461345;89;22470;-65
2021/07/21 02:51:34;;;;;;;10.93;6.87;;;;;;;24.45;46.10;100334.84;1464836;89;21477;-65
2021/07/21 02:54:37;;;;;;;8.80;6.53;;;;;;;24.44;46.14;100328.62;1454310;89;21626;-65
2021/07/21 02:57:24;;;;;;;6.83;6.12;;;;;;;24.44;46.11;100334.56;1444572;89;21441;-65
2021/07/21 02:59:54;;;;;;;9.98;7.10;;;;;;;24.44;46.09;100341.33;1446958;89;21463;-65
2021/07/21 03:02:26;;;;;;;8.03;6.65;;;;;;;24.40;46.13;100341.47;1443077;87;22522;-65
2021/07/21 03:04:57;;;;;;;7.42;6.22;;;;;;;24.41;46.16;100337.19;1451556;90;22367;-66
2021/07/21 03:07:24;;;;;;;8.95;7.78;;;;;;;24.41;46.20;100337.72;1459535;88;21685;-65
2021/07/21 03:09:52;;;;;;;8.90;7.08;;;;;;;24.41;46.17;100347.19;1440948;90;21523;-65
2021/07/21 03:12:22;;;;;;;12.13;6.40;;;;;;;24.40;46.14;100346.88;1449822;88;22252;-65
2021/07/21 03:14:50;;;;;;;8.98;6.83;;;;;;;24.40;46.13;100343.67;1436188;90;21545;-66
2021/07/21 03:17:18;;;;;;;7.87;6.95;;;;;;;24.39;46.15;100347.42;1464909;88;21360;-65
2021/07/21 03:19:51;;;;;;;10.85;7.05;;;;;;;24.39;46.09;100352.01;1435724;90;21479;-65
2021/07/21 03:22:22;;;;;;;7.22;6.17;;;;;;;24.40;46.17;100353.64;1472251;88;21662;-65
2021/07/21 03:24:51;;;;;;;7.30;6.60;;;;;;;24.39;46.41;100356.06;1478737;88;21980;-65
2021/07/21 03:27:19;;;;;;;9.35;6.75;;;;;;;24.38;46.58;100359.31;1460659;88;21685;-65
2021/07/21 03:29:50;;;;;;;12.58;7.28;;;;;;;24.39;46.76;100368.23;1471519;87;21622;-66
2021/07/21 03:32:19;;;;;;;9.78;6.15;;;;;;;24.39;46.89;100366.89;1462520;90;21509;-66
2021/07/21 03:34:47;;;;;;;12.25;7.37;;;;;;;24.38;46.97;100364.72;1471827;87;21745;-65
2021/07/21 03:37:14;;;;;;;11.03;6.60;;;;;;;24.39;47.10;100376.35;1474706;88;21426;-65
2021/07/21 03:39:42;;;;;;;7.72;6.20;;;;;;;24.39;47.27;100379.06;1439972;90;21730;-65
2021/07/21 03:42:11;;;;;;;9.80;7.40;;;;;;;24.38;47.51;100385.00;1463473;88;21513;-65
2021/07/21 03:44:39;;;;;;;8.38;6.25;;;;;;;24.38;47.61;100383.65;1455834;90;21543;-65
2021/07/21 03:47:05;;;;;;;7.08;5.65;;;;;;;24.38;47.59;100381.48;1474775;88;21515;-65
2021/07/21 03:49:32;;;;;;;7.47;5.67;;;;;;;24.38;47.73;100377.42;1454145;90;21605;-65
2021/07/21 03:51:58;;;;;;;8.58;6.45;;;;;;;24.37;47.81;100381.17;1492182;88;21478;-65
2021/07/21 03:54:26;;;;;;;6.37;5.17;;;;;;;24.37;47.87;100376.61;1487230;88;21508;-65
2021/07/21 03:56:54;;;;;;;8.38;5.70;;;;;;;24.38;47.90;100386.89;1474654;88;21486;-65
2021/07/21 03:59:23;;;;;;;7.60;5.28;;;;;;;24.37;47.89;100390.64;1464216;88;21499;-65
2021/07/21 04:01:51;;;;;;;7.90;4.90;;;;;;;24.35;48.01;100394.14;1478699;88;21714;-65
2021/07/21 04:04:20;;;;;;;7.12;5.37;;;;;;;24.35;48.07;100396.30;1461899;90;21582;-65
2021/07/21 04:06:47;;;;;;;7.17;5.40;;;;;;;24.34;48.26;100396.02;1466061;88;21699;-64
2021/07/21 04:09:19;;;;;;;6.10;4.87;;;;;;;24.33;48.15;100403.28;1434303;90;21465;-66
2021/07/21 04:11:48;;;;;;;7.33;5.17;;;;;;;24.31;48.29;100397.32;1476062;88;21626;-65
2021/07/21 04:14:17;;;;;;;12.53;5.97;;;;;;;24.31;48.24;100399.17;1439553;90;22626;-65
2021/07/21 04:16:47;;;;;;;10.07;5.40;;;;;;;24.30;48.32;100402.41;1482290;88;21729;-65
2021/07/21 04:19:15;;;;;;;18.10;5.72;;;;;;;24.29;48.38;100400.78;1433725;90;22742;-65
2021/07/21 04:21:46;;;;;;;11.40;4.62;;;;;;;24.29;48.45;100399.43;1467314;88;22418;-66
2021/07/21 04:24:14;;;;;;;7.97;4.67;;;;;;;24.31;48.55;100404.08;1487325;88;22543;-65
2021/07/21 04:26:42;;;;;;;8.70;3.98;;;;;;;24.31;48.61;100405.94;1438395;90;21508;-64
2021/07/21 04:29:18;;;;;;;5.60;4.33;;;;;;;24.30;48.65;100409.17;1478322;88;21508;-66
2021/07/21 04:31:47;;;;;;;8.05;4.87;;;;;;;24.31;48.71;100413.55;1461911;90;21723;-66
2021/07/21 04:34:15;;;;;;;12.15;5.62;;;;;;;24.30;48.78;100416.47;1458317;87;21508;-65
2021/07/21 04:36:42;;;;;;;12.10;4.20;;;;;;;24.29;48.85;100415.66;1441469;90;21531;-65
2021/07/21 04:39:19;;;;;;;6.35;3.85;;;;;;;24.30;48.92;100415.12;1457592;87;21581;-64
2021/07/21 04:41:51;;;;;;;9.55;4.53;;;;;;;24.30;49.02;100415.94;1471817;88;21729;-65
2021/07/21 04:44:19;;;;;;;6.12;4.10;;;;;;;24.30;49.13;100415.12;1494197;88;21677;-65
2021/07/21 04:46:47;;;;;;;6.40;4.45;;;;;;;24.30;49.17;100419.99;1470279;87;21738;-64
2021/07/21 04:49:17;;;;;;;6.47;4.08;;;;;;;24.29;49.31;100419.72;1451440;90;21635;-66
2021/07/21 04:51:46;;;;;;;5.12;4.45;;;;;;;24.30;49.47;100413.77;1454893;88;21774;-65
2021/07/21 04:54:13;;;;;;;5.30;4.25;;;;;;;24.29;49.55;100423.77;1442614;90;21486;-65
2021/07/21 04:56:40;;;;;;;10.87;5.53;;;;;;;24.29;49.59;100421.06;1472638;88;21766;-65
2021/07/21 04:59:06;;;;;;;9.95;4.58;;;;;;;24.28;49.64;100420.78;1447077;90;21737;-65
2021/07/21 05:01:37;;;;;;;13.93;4.30;;;;;;;24.28;49.76;100425.34;1479139;88;22410;-65
2021/07/21 05:04:05;;;;;;;13.98;5.55;;;;;;;24.28;49.83;100431.60;1451429;89;21583;-65
2021/07/21 05:06:33;;;;;;;19.00;5.30;;;;;;;24.26;49.82;100432.36;1468593;88;21478;-65
2021/07/21 05:08:59;;;;;;;12.47;4.35;;;;;;;24.26;49.83;100438.30;1445721;90;21560;-65
2021/07/21 05:11:25;;;;;;;31.97;6.95;;;;;;;24.26;49.83;100445.06;1458432;88;21530;-64
2021/07/21 05:13:53;;;;;;;21.68;5.62;;;;;;;24.26;49.88;100445.88;1482428;88;21515;-65
2021/07/21 05:16:19;;;;;;;26.42;4.87;;;;;;;24.26;50.05;100449.94;1438427;90;22529;-65
2021/07/21 05:18:49;;;;;;;17.98;5.42;;;;;;;24.24;49.98;100447.99;1479956;88;21501;-65
2021/07/21 05:21:15;;;;;;;16.00;4.33;;;;;;;24.25;49.99;100452.87;1445848;90;21450;-66
2021/07/21 05:23:41;;;;;;;9.70;5.17;;;;;;;24.24;50.13;100447.99;1476021;88;21515;-64
2021/07/21 05:26:08;;;;;;;6.78;4.53;;;;;;;24.23;50.16;100454.47;1463944;88;21434;-65
2021/07/21 05:28:38;;;;;;;13.72;5.58;;;;;;;24.21;50.08;100453.87;1434626;90;21604;-65
2021/07/21 05:31:04;;;;;;;8.70;5.00;;;;;;;24.22;50.07;100456.05;1441083;87;21537;-64
2021/07/21 05:33:31;;;;;;;8.98;4.42;;;;;;;24.21;50.06;100451.17;1479296;88;21405;-65
2021/07/21 05:35:59;;;;;;;10.70;4.47;;;;;;;24.22;50.03;100451.45;1433684;90;21531;-62
2021/07/21 05:38:26;;;;;;;18.50;5.12;;;;;;;24.23;50.46;100457.70;1464857;88;21522;-63
2021/07/21 05:40:53;;;;;;;13.20;4.60;;;;;;;24.22;50.37;100460.10;1458009;88;21514;-63
2021/07/21 05:43:19;;;;;;;8.73;4.42;;;;;;;24.22;50.28;100465.51;1471022;88;21574;-67
2021/07/21 05:45:45;;;;;;;12.23;5.22;;;;;;;24.21;50.22;100463.34;1457082;90;21575;-66
2021/07/21 05:48:11;;;;;;;15.03;5.00;;;;;;;24.24;50.18;100464.75;1487065;88;22544;-66
2021/07/21 05:50:38;;;;;;;10.82;4.37;;;;;;;24.24;50.15;100461.52;1453345;90;21649;-62
2021/07/21 05:53:04;;;;;;;7.25;4.87;;;;;;;24.26;50.16;100464.81;1490333;87;22529;-63
2021/07/21 05:55:31;;;;;;;6.83;4.70;;;;;;;24.28;50.55;100473.52;1442622;90;22537;-64
2021/07/21 05:57:57;;;;;;;6.62;4.83;;;;;;;24.28;50.89;100474.87;1473588;88;21442;-65
2021/07/21 06:00:24;;;;;;;15.10;5.37;;;;;;;24.29;50.92;100470.28;1475588;87;21470;-64
2021/07/21 06:02:50;;;;;;;13.08;4.80;;;;;;;24.26;50.79;100472.92;1481399;87;21485;-64
2021/07/21 06:05:16;;;;;;;12.30;5.45;;;;;;;24.26;50.71;100475.62;1432560;89;21699;-64
2021/07/21 06:07:43;;;;;;;11.88;5.70;;;;;;;24.27;50.68;100474.55;1393153;92;21534;-63
2021/07/21 06:10:11;;;;;;;10.25;5.08;;;;;;;24.28;50.62;100478.92;1461058;89;22431;-62
2021/07/21 06:12:38;;;;;;;6.05;4.62;;;;;;;24.27;50.54;100485.38;1460369;89;22439;-63
2021/07/21 06:15:07;;;;;;;8.88;4.97;;;;;;;24.29;50.48;100478.39;1450790;89;21456;-64
2021/07/21 06:17:34;;;;;;;15.27;6.57;;;;;;;24.30;50.45;100493.02;1466126;89;21389;-64
2021/07/21 06:20:03;;;;;;;8.85;4.62;;;;;;;24.33;50.47;100492.53;1436130;89;21618;-63
2021/07/21 06:22:33;;;;;;;10.88;4.67;;;;;;;24.36;50.43;100494.48;1448059;89;21499;-63
2021/07/21 06:25:00;;;;;;;10.85;4.85;;;;;;;24.38;50.41;100501.84;1470719;89;22690;-62
2021/07/21 06:27:26;;;;;;;8.93;4.55;;;;;;;24.40;50.36;100511.37;1441164;89;21641;-60
2021/07/21 06:29:53;;;;;;;10.10;4.70;;;;;;;24.45;50.31;100509.31;1456324;89;21367;-61
2021/07/21 06:32:19;;;;;;;20.68;5.55;;;;;;;24.47;50.27;100511.27;1445450;89;21623;-68
2021/07/21 06:34:45;;;;;;;24.63;5.65;;;;;;;24.49;50.24;100514.56;1461983;89;21582;-64
2021/07/21 06:37:12;;;;;;;11.73;5.03;;;;;;;24.52;50.21;100523.02;1456392;89;21500;-65
2021/07/21 06:39:38;;;;;;;11.83;4.95;;;;;;;24.55;50.17;100517.67;1449730;89;21573;-63
2021/07/21 06:42:05;;;;;;;10.60;4.37;;;;;;;24.57;50.06;100516.91;1461724;89;21523;-65
2021/07/21 06:44:31;;;;;;;8.73;4.12;;;;;;;24.60;49.96;100523.20;1458389;89;21612;-63
2021/07/21 06:46:57;;;;;;;10.23;5.20;;;;;;;24.62;49.93;100527.81;1445261;89;22447;-62
2021/07/21 06:49:23;;;;;;;10.00;4.60;;;;;;;24.63;49.89;100528.13;1477118;89;21676;-63
2021/07/21 06:51:50;;;;;;;9.60;4.25;;;;;;;24.66;49.85;100531.71;1443498;89;21581;-67
2021/07/21 06:54:16;;;;;;;9.55;4.78;;;;;;;24.68;49.84;100532.27;1464986;89;21456;-64
2021/07/21 06:56:42;;;;;;;12.88;4.60;;;;;;;24.69;49.79;100533.94;1461143;89;21528;-69
2021/07/21 06:59:09;;;;;;;7.60;4.62;;;;;;;24.71;49.89;100537.20;1460657;89;22468;-66
2021/07/21 07:01:35;;;;;;;14.15;4.22;;;;;;;24.72;49.77;100536.16;1472525;89;21566;-66
2021/07/21 07:04:01;;;;;;;8.95;4.05;;;;;;;24.73;49.74;100536.45;1462203;88;21525;-65
2021/07/21 07:06:27;;;;;;;12.82;4.47;;;;;;;24.76;49.67;100544.63;1463240;89;21422;-68
2021/07/21 07:08:54;;;;;;;12.75;5.40;;;;;;;24.78;49.66;100551.98;1460614;89;21481;-66
2021/07/21 07:11:20;;;;;;;9.15;5.00;;;;;;;24.79;49.63;100546.03;1460766;89;22449;-67
2021/07/21 07:13:47;;;;;;;9.88;5.58;;;;;;;24.79;49.52;100548.73;1472544;89;21571;-67
2021/07/21 07:16:14;;;;;;;6.05;4.15;;;;;;;24.80;49.51;100550.38;1467835;89;22472;-71
2021/07/21 07:18:40;;;;;;;8.23;4.30;;;;;;;24.79;49.46;100551.45;1437773;89;22590;-65
2021/07/21 07:21:07;;;;;;;7.50;5.00;;;;;;;24.79;49.39;100551.45;1452706;89;21525;-69
2021/07/21 07:23:34;;;;;;;19.23;5.65;;;;;;;24.78;49.39;100555.22;1445282;89;21642;-65
2021/07/21 07:26:00;;;;;;;16.07;4.35;;;;;;;24.79;49.45;100560.92;1457714;89;22487;-64
2021/07/21 07:28:27;;;;;;;14.35;4.50;;;;;;;24.81;49.45;100563.68;1470427;89;21644;-64
2021/07/21 07:30:54;;;;;;;11.45;4.90;;;;;;;24.82;49.46;100561.25;1456866;89;21445;-64
2021/07/21 07:33:20;;;;;;;11.28;4.35;;;;;;;24.84;49.38;100561.03;1473984;89;21518;-64
2021/07/21 07:35:46;;;;;;;7.62;3.62;;;;;;;24.86;49.38;100563.80;1437424;89;22572;-64
2021/07/21 07:38:14;;;;;;;7.47;4.50;;;;;;;24.87;49.32;100562.72;1461668;89;21444;-64
2021/07/21 07:40:43;;;;;;;12.53;4.33;;;;;;;24.89;49.30;100571.44;1450563;89;21525;-63
2021/07/21 07:43:10;;;;;;;8.43;4.25;;;;;;;24.91;49.28;100562.52;1457482;89;21577;-65
2021/07/21 07:45:37;;;;;;;16.70;4.12;;;;;;;24.93;49.21;100566.36;1455568;89;21679;-64
2021/07/21 07:48:05;;;;;;;4.25;3.72;;;;;;;24.96;49.23;100567.23;1448973;89;21584;-64
2021/07/21 07:50:31;;;;;;;7.90;3.87;;;;;;;24.97;49.22;100575.64;1457323;89;21606;-65
2021/07/21 07:52:57;;;;;;;4.60;3.58;;;;;;;24.98;49.28;100574.59;1450440;89;21459;-64
2021/07/21 07:55:24;;;;;;;8.30;4.28;;;;;;;25.00;49.12;100573.80;1426609;89;21563;-68
2021/07/21 07:57:51;;;;;;;9.13;3.87;;;;;;;25.01;49.12;100574.11;1472372;89;21819;-67
2021/07/21 08:00:20;;;;;;;8.15;4.22;;;;;;;25.03;49.07;100575.21;1444547;89;21525;-66
2021/07/21 08:02:47;;;;;;;4.37;3.22;;;;;;;25.05;49.07;100577.16;1463916;89;21362;-66
2021/07/21 08:05:14;;;;;;;5.00;3.98;;;;;;;25.05;49.01;100578.52;1454911;88;21645;-67
2021/07/21 08:07:41;;;;;;;10.70;4.03;;;;;;;25.04;48.98;100574.98;1460160;89;21495;-65
2021/07/21 08:10:13;;;;;;;6.80;3.72;;;;;;;25.04;48.96;100580.40;1454646;89;21488;-69
2021/07/21 08:12:37;;;;;;;5.03;3.75;;;;;;;25.06;48.87;100581.50;1448426;89;21777;-67
2021/07/21 08:15:05;;;;;;;5.85;4.33;;;;;;;25.05;48.69;100579.86;1458625;89;21566;-67
2021/07/21 08:17:32;;;;;;;7.72;3.98;;;;;;;25.05;48.59;100583.39;1466063;89;21725;-68
2021/07/21 08:19:59;;;;;;;7.42;4.30;;;;;;;25.03;48.53;100592.30;1436338;89;21716;-67
2021/07/21 08:22:25;;;;;;;4.60;3.30;;;;;;;25.04;48.60;100593.94;1465796;89;21435;-70
2021/07/21 08:24:51;;;;;;;7.90;4.17;;;;;;;25.04;48.62;100591.23;1469618;89;21639;-69
2021/07/21 08:27:17;;;;;;;7.00;4.17;;;;;;;25.04;48.62;100596.65;1450110;89;22383;-65
2021/07/21 08:29:43;;;;;;;7.22;3.40;;;;;;;25.04;48.63;100597.19;1442392;89;21578;-66
2021/07/21 08:32:10;;;;;;;8.25;3.40;;;;;;;25.05;48.76;100600.98;1455789;89;21569;-67
2021/07/21 08:34:37;;;;;;;4.92;3.27;;;;;;;25.05;48.75;100604.23;1455237;89;22435;-69
2021/07/21 08:37:04;;;;;;;9.25;4.55;;;;;;;25.05;48.76;100606.94;1477245;89;21525;-66
2021/07/21 08:39:31;;;;;;;8.25;3.47;;;;;;;25.06;48.74;100608.08;1450507;89;21407;-65
2021/07/21 08:41:58;;;;;;;6.83;3.52;;;;;;;25.06;48.76;100601.30;1461783;89;21540;-67
2021/07/21 08:44:25;;;;;;;7.20;3.47;;;;;;;25.08;48.95;100601.86;1462908;89;21532;-69
2021/07/21 08:46:51;;;;;;;9.18;4.00;;;;;;;25.09;48.83;100598.11;1457353;89;21377;-69
2021/07/21 08:49:17;;;;;;;7.85;4.28;;;;;;;25.12;48.85;100601.70;1447496;89;21511;-69
2021/07/21 08:51:45;;;;;;;4.37;3.80;;;;;;;25.14;48.78;100606.89;1461633;89;22463;-67
2021/07/21 08:54:13;;;;;;;9.13;4.00;;;;;;;25.15;48.76;100610.72;1464312;89;22464;-68
2021/07/21 08:56:40;;;;;;;7.67;3.77;;;;;;;25.17;48.75;100609.93;1422160;89;21554;-68
2021/07/21 08:59:08;;;;;;;7.15;4.00;;;;;;;25.19;48.69;100611.06;1447812;89;21643;-65
2021/07/21 09:01:36;;;;;;;5.20;3.80;;;;;;;25.20;48.63;100613.55;1461860;89;22539;-68
2021/07/21 09:04:03;;;;;;;8.35;3.42;;;;;;;25.22;48.73;100606.52;1446295;88;21540;-69
2021/07/21 09:06:29;;;;;;;8.95;3.80;;;;;;;25.24;48.59;100613.06;1456334;89;21730;-71
2021/07/21 09:08:55;;;;;;;3.75;2.92;;;;;;;25.27;48.45;100613.93;1451585;89;21616;-69
2021/07/21 09:11:22;;;;;;;3.67;3.15;;;;;;;25.28;48.38;100608.80;1460256;89;21518;-67
2021/07/21 09:13:48;;;;;;;3.60;3.27;;;;;;;25.30;48.21;100627.81;1472319;89;21503;-66
2021/07/21 09:16:15;;;;;;;8.43;3.58;;;;;;;25.31;48.10;100626.73;1461326;89;22485;-64
2021/07/21 09:18:53;;;;;;;5.10;3.55;;;;;;;25.31;48.13;100624.03;1462664;89;21393;-66
2021/07/21 09:21:23;;;;;;;6.40;3.75;;;;;;;25.33;47.91;100625.97;1437082;89;22457;-66
2021/07/21 09:23:53;;;;;;;8.13;3.35;;;;;;;25.34;47.75;100621.38;1447109;89;21553;-66
2021/07/21 09:26:32;;;;;;;4.60;3.42;;;;;;;25.35;47.68;100623.04;1458121;89;21636;-65
2021/07/21 09:29:02;;;;;;;4.95;3.62;;;;;;;25.35;47.68;100617.63;1473455;89;21554;-65
2021/07/21 09:31:40;;;;;;;5.55;3.33;;;;;;;25.36;47.48;100621.97;1446624;89;21738;-68
2021/07/21 09:34:20;;;;;;;7.28;3.60;;;;;;;25.35;47.55;100624.39;1457526;89;21599;-67
2021/07/21 09:36:48;;;;;;;16.82;3.17;;;;;;;25.37;47.48;100624.95;1436169;89;22465;-66
2021/07/21 09:39:15;;;;;;;18.57;3.02;;;;;;;25.37;47.46;100627.13;1450858;89;22465;-67
2021/07/21 09:41:53;;;;;;;10.50;3.52;;;;;;;25.40;47.48;100624.47;1450506;89;21591;-65
2021/07/21 09:44:38;;;;;;;13.35;3.90;;;;;;;25.41;47.46;100622.89;1448205;89;21495;-68
2021/07/21 09:47:17;;;;;;;5.92;3.12;;;;;;;25.41;47.41;100624.78;1464535;89;21429;-68
2021/07/21 09:49:46;;;;;;;7.65;4.75;;;;;;;25.43;47.53;100618.06;1465806;89;21650;-67
2021/07/21 09:52:21;;;;;;;5.80;3.05;;;;;;;25.45;47.55;100619.16;1447799;89;21510;-67
2021/07/21 09:55:10;;;;;;;9.58;3.72;;;;;;;25.47;47.50;100613.52;1455735;89;21510;-67
2021/07/21 09:57:40;;;;;;;10.90;3.85;;;;;;;25.48;47.54;100613.79;1469931;89;21598;-68
2021/07/21 10:00:22;;;;;;;7.60;2.92;;;;;;;25.49;47.52;100618.14;1451076;89;21665;-66
2021/07/21 10:02:52;;;;;;;7.00;2.80;;;;;;;25.49;47.52;100614.92;1453097;89;21598;-67
2021/07/21 10:05:18;;;;;;;4.13;3.73;;;;;;;25.51;47.39;100611.41;1449571;88;21689;-67
2021/07/21 10:07:50;;;;;;;6.90;3.20;;;;;;;25.54;47.17;100613.64;1449594;89;21838;-66
2021/07/21 10:10:32;;;;;;;5.00;2.85;;;;;;;25.53;46.90;100618.78;1456188;89;21665;-68
2021/07/21 10:13:05;;;;;;;5.17;3.00;;;;;;;25.55;46.91;100619.37;1449884;89;21582;-67
2021/07/21 10:15:33;;;;;;;5.03;3.05;;;;;;;25.55;46.80;100617.16;1467628;89;21617;-67
2021/07/21 10:18:17;;;;;;;15.18;3.45;;;;;;;25.54;46.78;100613.64;1443145;89;21591;-68
2021/07/21 10:20:45;;;;;;;7.50;2.80;;;;;;;25.54;46.84;100620.41;1449927;89;21487;-66
2021/07/21 10:23:15;;;;;;;3.87;2.95;;;;;;;25.55;46.90;100625.30;1459964;89;22376;-68
2021/07/21 10:25:42;;;;;;;7.30;3.52;;;;;;;25.53;46.82;100618.78;1467421;89;22686;-68
2021/07/21 10:28:10;;;;;;;6.60;3.42;;;;;;;25.53;46.71;100620.67;1446559;89;21495;-64
2021/07/21 10:30:39;;;;;;;5.87;2.80;;;;;;;25.52;46.57;100618.50;1447806;89;22487;-63
2021/07/21 10:33:05;;;;;;;6.50;2.90;;;;;;;25.50;46.51;100621.97;1463329;89;21561;-64
2021/07/21 10:35:32;;;;;;;6.12;2.87;;;;;;;25.50;46.63;100616.55;1461805;89;21481;-64
2021/07/21 10:38:03;;;;;;;5.58;2.95;;;;;;;25.50;46.67;100615.20;1441069;89;22667;-66
2021/07/21 10:40:43;;;;;;;5.67;3.25;;;;;;;25.50;46.74;100619.27;1436914;89;21555;-66
2021/07/21 10:43:16;;;;;;;7.05;2.80;;;;;;;25.51;46.73;100619.55;1475273;88;21677;-67
2021/07/21 10:45:43;;;;;;;5.22;3.40;;;;;;;25.51;46.76;100624.96;1463864;88;21768;-68
2021/07/21 10:48:22;;;;;;;5.62;3.15;;;;;;;25.51;46.79;100624.14;1448323;90;21560;-69
2021/07/21 10:53:59;;;;;;;7.45;3.75;;;;;;;25.50;46.87;100627.93;1376746;95;21495;-62
2021/07/21 10:59:22;;;;;;;5.17;2.80;;;;;;;25.49;47.04;100624.41;1378695;95;21532;-62
2021/07/21 11:01:53;;;;;;;6.00;3.55;;;;;;;25.49;47.05;100627.11;1368207;95;21565;-63
2021/07/21 11:04:22;;;;;;;4.83;3.08;;;;;;;25.50;47.04;100634.16;1371460;95;21716;-62
2021/07/21 11:06:51;;;;;;;3.98;2.67;;;;;;;25.52;47.06;100627.98;1369287;95;22589;-62
2021/07/21 11:09:26;;;;;;;6.03;3.45;;;;;;;25.54;47.04;100625.83;1382632;95;21546;-61
2021/07/21 11:11:59;;;;;;;4.85;3.02;;;;;;;25.56;46.99;100625.60;1356473;95;21598;-63
2021/07/21 11:14:30;;;;;;;8.65;2.83;;;;;;;25.59;46.92;100638.67;1375705;95;21494;-62
2021/07/21 11:17:10;;;;;;;7.72;4.35;;;;;;;25.58;46.93;100633.78;1370216;95;21614;-62
2021/07/21 11:19:51;;;;;;;5.00;3.10;;;;;;;25.59;46.95;100640.84;1378423;95;21583;-62
2021/07/21 11:22:37;;;;;;;3.98;2.77;;;;;;;25.62;46.93;100635.47;1378598;95;21634;-63
2021/07/21 11:25:15;;;;;;;4.25;3.62;;;;;;;25.62;46.67;100632.22;1428096;91;21480;-64
2021/07/21 11:27:55;;;;;;;3.77;3.17;;;;;;;25.62;46.49;100639.00;1444633;90;21598;-68
2021/07/21 11:30:49;;;;;;;10.68;3.37;;;;;;;25.61;46.51;100636.55;1429104;89;22670;-64
2021/07/21 11:33:54;;;;;;;5.37;3.47;;;;;;;25.60;46.70;100634.34;1442048;90;21664;-65
2021/07/21 11:36:48;;;;;;;7.20;3.10;;;;;;;25.60;46.83;100631.63;1437404;90;21618;-66
2021/07/21 11:39:54;;;;;;;5.60;3.20;;;;;;;25.60;46.77;100632.98;1423559;90;21707;-64
2021/07/21 11:42:40;;;;;;;11.65;3.47;;;;;;;25.58;46.71;100628.36;1433404;90;21657;-64
2021/07/21 11:45:12;;;;;;;5.95;2.75;;;;;;;25.58;46.85;100625.66;1436933;90;21382;-63